sensor_id;sensor_type;location;lat;lon;timestamp;temperature;humidity
975;DHT22;6115;49.296;10.602;2023-05-14T00:00:04;9.40;72.10
975;DHT22;6115;49.296;10.602;2023-05-14T00:05:06;9.20;72.10
975;DHT22;6115;49.296;10.602;2023-05-14T00:10:07;9.20;72.60
975;DHT22;6115;49.296;10.602;2023-05-14T00:15:08;9.20;72.40
975;DHT22;6115;49.296;10.602;2023-05-14T00:20:09;9.10;72.30
975;DHT22;6115;49.296;10.602;2023-05-14T00:25:11;9.10;71.70
975;DHT22;6115;49.296;10.602;2023-05-14T00:30:11;9.00;71.60
975;DHT22;6115;49.296;10.602;2023-05-14T00:35:12;8.90;71.70
975;DHT22;6115;49.296;10.602;2023-05-14T00:40:13;8.80;71.60
975;DHT22;6115;49.296;10.602;2023-05-14T00:45:14;8.80;72.00
975;DHT22;6115;49.296;10.602;2023-05-14T00:50:15;8.70;72.10
975;DHT22;6115;49.296;10.602;2023-05-14T00:55:17;8.70;72.90
975;DHT22;6115;49.296;10.602;2023-05-14T01:00:18;8.70;73.80
975;DHT22;6115;49.296;10.602;2023-05-14T01:05:19;8.70;74.10
975;DHT22;6115;49.296;10.602;2023-05-14T01:10:43;8.70;75.30
975;DHT22;6115;49.296;10.602;2023-05-14T01:15:46;8.80;76.30
975;DHT22;6115;49.296;10.602;2023-05-14T01:20:49;8.80;76.90
975;DHT22;6115;49.296;10.602;2023-05-14T01:25:51;8.90;76.90
975;DHT22;6115;49.296;10.602;2023-05-14T01:31:02;9.00;76.60
975;DHT22;6115;49.296;10.602;2023-05-14T01:36:06;9.10;76.20
975;DHT22;6115;49.296;10.602;2023-05-14T01:41:07;9.20;75.70
975;DHT22;6115;49.296;10.602;2023-05-14T01:46:07;9.20;75.30
975;DHT22;6115;49.296;10.602;2023-05-14T01:51:08;9.00;75.90
975;DHT22;6115;49.296;10.602;2023-05-14T01:56:09;9.10;76.40
975;DHT22;6115;49.296;10.602;2023-05-14T02:01:09;9.20;76.50
975;DHT22;6115;49.296;10.602;2023-05-14T02:06:10;9.20;76.90
975;DHT22;6115;49.296;10.602;2023-05-14T02:11:10;9.20;77.20
975;DHT22;6115;49.296;10.602;2023-05-14T02:16:11;9.20;77.30
975;DHT22;6115;49.296;10.602;2023-05-14T02:21:11;9.30;77.50
975;DHT22;6115;49.296;10.602;2023-05-14T02:26:12;9.30;77.50
975;DHT22;6115;49.296;10.602;2023-05-14T02:31:13;9.30;78.10
975;DHT22;6115;49.296;10.602;2023-05-14T02:36:13;9.40;78.40
975;DHT22;6115;49.296;10.602;2023-05-14T02:41:15;9.60;77.90
975;DHT22;6115;49.296;10.602;2023-05-14T02:46:15;9.70;77.80
975;DHT22;6115;49.296;10.602;2023-05-14T02:51:16;9.80;77.60
975;DHT22;6115;49.296;10.602;2023-05-14T02:56:16;9.90;77.70
975;DHT22;6115;49.296;10.602;2023-05-14T03:01:17;9.90;77.50
975;DHT22;6115;49.296;10.602;2023-05-14T03:06:18;10.10;76.10
975;DHT22;6115;49.296;10.602;2023-05-14T03:11:18;10.10;75.80
975;DHT22;6115;49.296;10.602;2023-05-14T03:16:19;10.20;76.00
975;DHT22;6115;49.296;10.602;2023-05-14T03:21:19;10.20;76.50
975;DHT22;6115;49.296;10.602;2023-05-14T03:26:20;10.20;76.70
975;DHT22;6115;49.296;10.602;2023-05-14T03:31:20;10.20;76.80
975;DHT22;6115;49.296;10.602;2023-05-14T03:36:21;10.20;77.10
975;DHT22;6115;49.296;10.602;2023-05-14T03:41:22;10.30;77.10
975;DHT22;6115;49.296;10.602;2023-05-14T03:46:22;10.40;77.00
975;DHT22;6115;49.296;10.602;2023-05-14T03:51:24;10.40;76.90
975;DHT22;6115;49.296;10.602;2023-05-14T03:56:24;10.40;76.80
975;DHT22;6115;49.296;10.602;2023-05-14T04:01:25;10.40;76.60
975;DHT22;6115;49.296;10.602;2023-05-14T04:06:26;10.50;76.60
975;DHT22;6115;49.296;10.602;2023-05-14T04:11:26;10.40;76.00
975;DHT22;6115;49.296;10.602;2023-05-14T04:16:27;10.40;75.80
975;DHT22;6115;49.296;10.602;2023-05-14T04:21:27;10.40;75.80
975;DHT22;6115;49.296;10.602;2023-05-14T04:26:28;10.50;75.60
975;DHT22;6115;49.296;10.602;2023-05-14T04:31:29;10.60;75.20
975;DHT22;6115;49.296;10.602;2023-05-14T04:36:29;10.60;75.00
975;DHT22;6115;49.296;10.602;2023-05-14T04:41:31;10.60;74.80
975;DHT22;6115;49.296;10.602;2023-05-14T04:46:32;10.60;74.70
975;DHT22;6115;49.296;10.602;2023-05-14T04:51:33;10.70;75.40
975;DHT22;6115;49.296;10.602;2023-05-14T04:56:33;10.70;74.80
975;DHT22;6115;49.296;10.602;2023-05-14T05:01:35;10.80;74.80
975;DHT22;6115;49.296;10.602;2023-05-14T05:06:35;10.90;74.80
975;DHT22;6115;49.296;10.602;2023-05-14T05:11:36;11.00;74.60
975;DHT22;6115;49.296;10.602;2023-05-14T05:16:38;11.10;74.70
975;DHT22;6115;49.296;10.602;2023-05-14T05:21:38;11.20;74.10
975;DHT22;6115;49.296;10.602;2023-05-14T05:26:40;11.30;74.30
975;DHT22;6115;49.296;10.602;2023-05-14T05:31:40;11.40;74.10
975;DHT22;6115;49.296;10.602;2023-05-14T05:36:41;11.60;73.20
975;DHT22;6115;49.296;10.602;2023-05-14T05:41:41;11.60;72.40
975;DHT22;6115;49.296;10.602;2023-05-14T05:46:43;11.70;72.10
975;DHT22;6115;49.296;10.602;2023-05-14T05:51:43;11.70;71.90
975;DHT22;6115;49.296;10.602;2023-05-14T05:56:44;11.70;71.50
975;DHT22;6115;49.296;10.602;2023-05-14T06:01:44;11.70;72.80
975;DHT22;6115;49.296;10.602;2023-05-14T06:06:45;11.70;72.70
975;DHT22;6115;49.296;10.602;2023-05-14T06:11:45;11.90;72.20
975;DHT22;6115;49.296;10.602;2023-05-14T06:16:46;12.00;72.30
975;DHT22;6115;49.296;10.602;2023-05-14T06:21:46;12.20;71.30
975;DHT22;6115;49.296;10.602;2023-05-14T06:26:47;12.30;71.40
975;DHT22;6115;49.296;10.602;2023-05-14T06:31:48;12.30;72.10
975;DHT22;6115;49.296;10.602;2023-05-14T06:36:49;12.50;70.30
975;DHT22;6115;49.296;10.602;2023-05-14T06:41:50;12.70;70.80
975;DHT22;6115;49.296;10.602;2023-05-14T06:46:51;12.90;71.50
975;DHT22;6115;49.296;10.602;2023-05-14T06:51:52;13.20;68.80
975;DHT22;6115;49.296;10.602;2023-05-14T06:56:53;13.40;67.90
975;DHT22;6115;49.296;10.602;2023-05-14T07:01:54;13.70;68.30
975;DHT22;6115;49.296;10.602;2023-05-14T07:06:54;13.90;66.10
975;DHT22;6115;49.296;10.602;2023-05-14T07:11:55;14.00;65.60
975;DHT22;6115;49.296;10.602;2023-05-14T07:16:56;14.10;64.90
975;DHT22;6115;49.296;10.602;2023-05-14T07:21:56;14.30;63.40
975;DHT22;6115;49.296;10.602;2023-05-14T07:26:57;14.50;63.60
975;DHT22;6115;49.296;10.602;2023-05-14T07:31:58;14.60;61.70
975;DHT22;6115;49.296;10.602;2023-05-14T07:36:58;14.80;60.70
975;DHT22;6115;49.296;10.602;2023-05-14T07:42:00;14.80;59.90
975;DHT22;6115;49.296;10.602;2023-05-14T07:47:00;15.00;60.50
975;DHT22;6115;49.296;10.602;2023-05-14T07:52:01;15.00;59.70
975;DHT22;6115;49.296;10.602;2023-05-14T07:57:02;15.00;58.90
975;DHT22;6115;49.296;10.602;2023-05-14T08:02:02;15.10;59.30
975;DHT22;6115;49.296;10.602;2023-05-14T08:07:04;15.10;59.30
975;DHT22;6115;49.296;10.602;2023-05-14T08:12:04;15.30;58.60
975;DHT22;6115;49.296;10.602;2023-05-14T08:17:05;15.50;58.90
975;DHT22;6115;49.296;10.602;2023-05-14T08:22:06;15.60;56.90
975;DHT22;6115;49.296;10.602;2023-05-14T08:27:06;15.60;57.30
975;DHT22;6115;49.296;10.602;2023-05-14T08:32:08;15.90;58.00
975;DHT22;6115;49.296;10.602;2023-05-14T08:37:09;15.90;55.60
975;DHT22;6115;49.296;10.602;2023-05-14T08:42:11;15.80;56.70
975;DHT22;6115;49.296;10.602;2023-05-14T08:47:14;16.00;55.70
975;DHT22;6115;49.296;10.602;2023-05-14T08:52:17;16.10;54.70
975;DHT22;6115;49.296;10.602;2023-05-14T08:57:19;16.20;55.50
975;DHT22;6115;49.296;10.602;2023-05-14T09:02:27;16.50;53.40
975;DHT22;6115;49.296;10.602;2023-05-14T09:07:28;16.50;52.70
975;DHT22;6115;49.296;10.602;2023-05-14T09:12:29;16.60;53.50
975;DHT22;6115;49.296;10.602;2023-05-14T09:17:30;16.30;52.90
975;DHT22;6115;49.296;10.602;2023-05-14T09:22:31;16.20;53.50
975;DHT22;6115;49.296;10.602;2023-05-14T09:27:32;16.20;53.90
975;DHT22;6115;49.296;10.602;2023-05-14T09:32:41;16.40;52.90
975;DHT22;6115;49.296;10.602;2023-05-14T09:38:01;16.50;53.20
975;DHT22;6115;49.296;10.602;2023-05-14T09:43:02;16.70;52.90
975;DHT22;6115;49.296;10.602;2023-05-14T09:48:03;16.80;53.00
975;DHT22;6115;49.296;10.602;2023-05-14T09:53:03;17.00;52.90
975;DHT22;6115;49.296;10.602;2023-05-14T09:58:04;17.10;52.70
975;DHT22;6115;49.296;10.602;2023-05-14T10:03:06;17.40;51.00
975;DHT22;6115;49.296;10.602;2023-05-14T10:08:15;17.50;50.90
975;DHT22;6115;49.296;10.602;2023-05-14T10:13:24;17.70;50.80
975;DHT22;6115;49.296;10.602;2023-05-14T10:18:27;17.80;49.40
975;DHT22;6115;49.296;10.602;2023-05-14T10:23:30;18.00;49.10
975;DHT22;6115;49.296;10.602;2023-05-14T10:28:31;18.10;50.50
975;DHT22;6115;49.296;10.602;2023-05-14T10:33:46;18.10;48.40
975;DHT22;6115;49.296;10.602;2023-05-14T10:38:54;18.00;49.50
975;DHT22;6115;49.296;10.602;2023-05-14T10:43:56;17.90;49.60
975;DHT22;6115;49.296;10.602;2023-05-14T10:48:58;17.90;48.70
975;DHT22;6115;49.296;10.602;2023-05-14T10:53:59;18.10;49.60
975;DHT22;6115;49.296;10.602;2023-05-14T10:59:01;18.20;50.70
975;DHT22;6115;49.296;10.602;2023-05-14T11:04:02;18.10;48.40
975;DHT22;6115;49.296;10.602;2023-05-14T11:09:03;18.10;48.40
975;DHT22;6115;49.296;10.602;2023-05-14T11:14:05;18.40;48.70
975;DHT22;6115;49.296;10.602;2023-05-14T11:19:05;18.50;48.00
975;DHT22;6115;49.296;10.602;2023-05-14T11:24:06;18.60;47.80
975;DHT22;6115;49.296;10.602;2023-05-14T11:29:07;18.80;46.70
975;DHT22;6115;49.296;10.602;2023-05-14T11:34:07;18.80;45.80
975;DHT22;6115;49.296;10.602;2023-05-14T11:39:17;19.00;45.00
975;DHT22;6115;49.296;10.602;2023-05-14T11:44:17;18.80;45.60
975;DHT22;6115;49.296;10.602;2023-05-14T11:49:20;18.40;46.40
975;DHT22;6115;49.296;10.602;2023-05-14T11:54:24;18.30;46.90
975;DHT22;6115;49.296;10.602;2023-05-14T11:59:30;18.10;47.30
975;DHT22;6115;49.296;10.602;2023-05-14T12:04:31;18.20;46.90
975;DHT22;6115;49.296;10.602;2023-05-14T12:09:37;18.50;46.00
975;DHT22;6115;49.296;10.602;2023-05-14T12:14:41;18.40;46.40
975;DHT22;6115;49.296;10.602;2023-05-14T12:19:43;18.40;45.40
975;DHT22;6115;49.296;10.602;2023-05-14T12:24:58;18.80;46.10
975;DHT22;6115;49.296;10.602;2023-05-14T12:30:03;18.90;46.30
975;DHT22;6115;49.296;10.602;2023-05-14T12:35:04;18.60;44.20
975;DHT22;6115;49.296;10.602;2023-05-14T12:40:05;18.70;46.70
975;DHT22;6115;49.296;10.602;2023-05-14T12:45:08;19.00;46.20
975;DHT22;6115;49.296;10.602;2023-05-14T12:50:09;19.00;47.30
975;DHT22;6115;49.296;10.602;2023-05-14T12:55:10;19.10;45.70
975;DHT22;6115;49.296;10.602;2023-05-14T13:00:12;19.40;45.20
975;DHT22;6115;49.296;10.602;2023-05-14T13:05:13;19.70;45.10
975;DHT22;6115;49.296;10.602;2023-05-14T13:10:13;19.90;45.30
975;DHT22;6115;49.296;10.602;2023-05-14T13:15:14;20.20;42.60
975;DHT22;6115;49.296;10.602;2023-05-14T13:20:15;19.60;44.90
975;DHT22;6115;49.296;10.602;2023-05-14T13:25:17;19.90;45.10
975;DHT22;6115;49.296;10.602;2023-05-14T13:30:18;19.80;43.20
975;DHT22;6115;49.296;10.602;2023-05-14T13:35:19;19.50;44.20
975;DHT22;6115;49.296;10.602;2023-05-14T13:40:19;19.70;42.90
975;DHT22;6115;49.296;10.602;2023-05-14T13:45:20;19.90;45.30
975;DHT22;6115;49.296;10.602;2023-05-14T13:50:20;20.10;43.60
975;DHT22;6115;49.296;10.602;2023-05-14T13:55:21;20.30;42.80
975;DHT22;6115;49.296;10.602;2023-05-14T14:00:22;20.50;44.20
975;DHT22;6115;49.296;10.602;2023-05-14T14:05:22;20.40;42.40
975;DHT22;6115;49.296;10.602;2023-05-14T14:10:27;19.90;43.90
975;DHT22;6115;49.296;10.602;2023-05-14T14:15:28;20.10;42.50
975;DHT22;6115;49.296;10.602;2023-05-14T14:20:28;20.50;44.00
975;DHT22;6115;49.296;10.602;2023-05-14T14:25:30;21.00;41.60
975;DHT22;6115;49.296;10.602;2023-05-14T14:30:31;20.90;41.50
975;DHT22;6115;49.296;10.602;2023-05-14T14:35:32;21.40;40.00
975;DHT22;6115;49.296;10.602;2023-05-14T14:40:34;21.80;39.20
975;DHT22;6115;49.296;10.602;2023-05-14T14:45:35;21.90;39.20
975;DHT22;6115;49.296;10.602;2023-05-14T14:50:35;21.40;38.70
975;DHT22;6115;49.296;10.602;2023-05-14T14:55:36;21.30;39.40
975;DHT22;6115;49.296;10.602;2023-05-14T15:00:36;21.80;39.40
975;DHT22;6115;49.296;10.602;2023-05-14T15:05:37;22.70;36.90
975;DHT22;6115;49.296;10.602;2023-05-14T15:10:37;23.10;36.50
975;DHT22;6115;49.296;10.602;2023-05-14T15:15:38;23.30;37.90
975;DHT22;6115;49.296;10.602;2023-05-14T15:20:38;22.70;38.20
975;DHT22;6115;49.296;10.602;2023-05-14T15:25:39;22.40;39.40
975;DHT22;6115;49.296;10.602;2023-05-14T15:30:40;22.80;37.40
975;DHT22;6115;49.296;10.602;2023-05-14T15:35:40;22.80;36.30
975;DHT22;6115;49.296;10.602;2023-05-14T15:40:41;22.90;36.90
975;DHT22;6115;49.296;10.602;2023-05-14T15:45:43;23.00;37.60
975;DHT22;6115;49.296;10.602;2023-05-14T15:50:43;23.20;35.90
975;DHT22;6115;49.296;10.602;2023-05-14T15:55:49;22.80;35.30
975;DHT22;6115;49.296;10.602;2023-05-14T16:00:50;22.00;36.50
975;DHT22;6115;49.296;10.602;2023-05-14T16:05:50;21.50;36.40
975;DHT22;6115;49.296;10.602;2023-05-14T16:10:51;21.20;36.90
975;DHT22;6115;49.296;10.602;2023-05-14T16:15:51;20.90;38.60
975;DHT22;6115;49.296;10.602;2023-05-14T16:20:52;20.90;40.90
975;DHT22;6115;49.296;10.602;2023-05-14T16:25:53;21.10;39.70
975;DHT22;6115;49.296;10.602;2023-05-14T16:30:53;21.10;39.40
975;DHT22;6115;49.296;10.602;2023-05-14T16:35:54;20.90;39.60
975;DHT22;6115;49.296;10.602;2023-05-14T16:40:54;20.60;39.30
975;DHT22;6115;49.296;10.602;2023-05-14T16:45:55;20.10;39.60
975;DHT22;6115;49.296;10.602;2023-05-14T16:50:55;19.90;40.10
975;DHT22;6115;49.296;10.602;2023-05-14T16:55:56;19.90;40.60
975;DHT22;6115;49.296;10.602;2023-05-14T17:00:56;19.80;40.50
975;DHT22;6115;49.296;10.602;2023-05-14T17:05:57;19.80;40.50
975;DHT22;6115;49.296;10.602;2023-05-14T17:10:58;19.80;40.50
975;DHT22;6115;49.296;10.602;2023-05-14T17:15:59;19.70;40.40
975;DHT22;6115;49.296;10.602;2023-05-14T17:21:00;19.50;40.30
975;DHT22;6115;49.296;10.602;2023-05-14T17:26:00;19.40;41.90
975;DHT22;6115;49.296;10.602;2023-05-14T17:31:01;19.20;41.60
975;DHT22;6115;49.296;10.602;2023-05-14T17:36:02;19.10;40.90
975;DHT22;6115;49.296;10.602;2023-05-14T17:41:02;19.10;40.90
975;DHT22;6115;49.296;10.602;2023-05-14T17:46:03;19.20;41.60
975;DHT22;6115;49.296;10.602;2023-05-14T17:51:04;18.90;41.90
975;DHT22;6115;49.296;10.602;2023-05-14T17:56:05;18.80;43.10
975;DHT22;6115;49.296;10.602;2023-05-14T18:01:05;18.60;43.90
975;DHT22;6115;49.296;10.602;2023-05-14T18:06:06;18.40;44.00
975;DHT22;6115;49.296;10.602;2023-05-14T18:11:07;18.10;43.70
975;DHT22;6115;49.296;10.602;2023-05-14T18:16:07;17.90;44.80
975;DHT22;6115;49.296;10.602;2023-05-14T18:21:08;17.80;44.90
975;DHT22;6115;49.296;10.602;2023-05-14T18:26:09;17.70;45.30
975;DHT22;6115;49.296;10.602;2023-05-14T18:31:09;17.60;46.00
975;DHT22;6115;49.296;10.602;2023-05-14T18:36:10;17.50;46.30
975;DHT22;6115;49.296;10.602;2023-05-14T18:41:11;17.20;46.90
975;DHT22;6115;49.296;10.602;2023-05-14T18:46:11;17.10;47.60
975;DHT22;6115;49.296;10.602;2023-05-14T18:51:12;16.90;47.40
975;DHT22;6115;49.296;10.602;2023-05-14T18:56:13;16.80;48.50
975;DHT22;6115;49.296;10.602;2023-05-14T19:01:13;16.60;48.90
975;DHT22;6115;49.296;10.602;2023-05-14T19:06:14;16.50;49.30
975;DHT22;6115;49.296;10.602;2023-05-14T19:11:16;16.10;50.40
975;DHT22;6115;49.296;10.602;2023-05-14T19:16:18;15.70;51.30
975;DHT22;6115;49.296;10.602;2023-05-14T19:21:18;15.60;52.30
975;DHT22;6115;49.296;10.602;2023-05-14T19:26:19;15.50;52.70
975;DHT22;6115;49.296;10.602;2023-05-14T19:31:20;15.40;53.00
975;DHT22;6115;49.296;10.602;2023-05-14T19:36:21;15.30;53.30
975;DHT22;6115;49.296;10.602;2023-05-14T19:41:21;15.10;53.60
975;DHT22;6115;49.296;10.602;2023-05-14T19:46:22;15.00;53.80
975;DHT22;6115;49.296;10.602;2023-05-14T19:51:23;14.80;54.60
975;DHT22;6115;49.296;10.602;2023-05-14T19:56:24;14.70;54.80
975;DHT22;6115;49.296;10.602;2023-05-14T20:01:25;14.50;55.50
975;DHT22;6115;49.296;10.602;2023-05-14T20:06:26;14.40;55.90
975;DHT22;6115;49.296;10.602;2023-05-14T20:11:26;14.20;56.50
975;DHT22;6115;49.296;10.602;2023-05-14T20:16:27;14.00;57.40
975;DHT22;6115;49.296;10.602;2023-05-14T20:21:28;13.90;57.50
975;DHT22;6115;49.296;10.602;2023-05-14T20:26:28;13.80;57.90
975;DHT22;6115;49.296;10.602;2023-05-14T20:31:29;13.60;58.70
975;DHT22;6115;49.296;10.602;2023-05-14T20:36:30;13.50;59.70
975;DHT22;6115;49.296;10.602;2023-05-14T20:41:31;13.40;60.70
975;DHT22;6115;49.296;10.602;2023-05-14T20:46:31;13.50;61.20
975;DHT22;6115;49.296;10.602;2023-05-14T20:51:32;13.60;62.80
975;DHT22;6115;49.296;10.602;2023-05-14T20:56:33;13.30;65.60
975;DHT22;6115;49.296;10.602;2023-05-14T21:01:35;13.10;68.90
975;DHT22;6115;49.296;10.602;2023-05-14T21:06:36;12.90;71.20
975;DHT22;6115;49.296;10.602;2023-05-14T21:11:36;12.80;73.00
975;DHT22;6115;49.296;10.602;2023-05-14T21:16:37;12.80;74.00
975;DHT22;6115;49.296;10.602;2023-05-14T21:21:38;12.60;75.00
975;DHT22;6115;49.296;10.602;2023-05-14T21:26:38;12.60;75.70
975;DHT22;6115;49.296;10.602;2023-05-14T21:31:40;12.60;77.40
975;DHT22;6115;49.296;10.602;2023-05-14T21:36:41;12.50;78.70
975;DHT22;6115;49.296;10.602;2023-05-14T21:41:41;12.60;78.70
975;DHT22;6115;49.296;10.602;2023-05-14T21:46:42;12.70;78.70
975;DHT22;6115;49.296;10.602;2023-05-14T21:51:42;12.70;78.90
975;DHT22;6115;49.296;10.602;2023-05-14T21:56:43;12.70;79.20
975;DHT22;6115;49.296;10.602;2023-05-14T22:01:43;12.70;79.20
975;DHT22;6115;49.296;10.602;2023-05-14T22:06:45;12.60;78.10
975;DHT22;6115;49.296;10.602;2023-05-14T22:11:46;12.50;78.50
975;DHT22;6115;49.296;10.602;2023-05-14T22:16:47;12.40;79.30
975;DHT22;6115;49.296;10.602;2023-05-14T22:21:50;12.40;80.40
975;DHT22;6115;49.296;10.602;2023-05-14T22:26:51;12.30;80.30
975;DHT22;6115;49.296;10.602;2023-05-14T22:31:51;12.30;80.40
975;DHT22;6115;49.296;10.602;2023-05-14T22:36:52;12.30;80.10
975;DHT22;6115;49.296;10.602;2023-05-14T22:41:53;12.30;80.00
975;DHT22;6115;49.296;10.602;2023-05-14T22:46:54;12.40;80.10
975;DHT22;6115;49.296;10.602;2023-05-14T22:51:55;12.30;79.50
975;DHT22;6115;49.296;10.602;2023-05-14T22:56:56;12.20;79.50
975;DHT22;6115;49.296;10.602;2023-05-14T23:01:57;12.30;79.70
975;DHT22;6115;49.296;10.602;2023-05-14T23:06:57;12.40;79.70
975;DHT22;6115;49.296;10.602;2023-05-14T23:11:58;12.30;79.50
975;DHT22;6115;49.296;10.602;2023-05-14T23:16:58;12.20;79.40
975;DHT22;6115;49.296;10.602;2023-05-14T23:21:59;12.10;79.70
975;DHT22;6115;49.296;10.602;2023-05-14T23:26:59;12.00;79.70
975;DHT22;6115;49.296;10.602;2023-05-14T23:32:00;12.10;79.40
975;DHT22;6115;49.296;10.602;2023-05-14T23:37:01;12.00;78.40
975;DHT22;6115;49.296;10.602;2023-05-14T23:42:01;11.90;77.80
975;DHT22;6115;49.296;10.602;2023-05-14T23:47:02;11.70;78.60
975;DHT22;6115;49.296;10.602;2023-05-14T23:52:03;11.60;79.00
975;DHT22;6115;49.296;10.602;2023-05-14T23:57:04;11.50;78.70
